Time;durP1;ratioP1;P1;durP2;ratioP2;P2;SDS_P1;SDS_P2;PMS_P1;PMS_P2;Temp;Humidity;BMP_temperature;BMP_pressure;BME280_temperature;BME280_humidity;BME280_pressure;Samples;Min_cycle;Max_cycle;Signal;HPM_P1;HPM_P2
2020/12/26 00:00:29;;;;;;;21.77;13.45;;;;;;;;;;4937521;29;20500;-66
2020/12/26 00:02:55;;;;;;;19.35;12.68;;;;;;;;;;4952829;28;20066;-64
2020/12/26 00:05:21;;;;;;;22.02;13.27;;;;;;;;;;4935733;29;20043;-66
2020/12/26 00:07:48;;;;;;;23.00;12.65;;;;;;;;;;4938513;29;20086;-65
2020/12/26 00:10:14;;;;;;;22.13;13.50;;;;;;;;;;4937138;29;20054;-66
2020/12/26 00:12:41;;;;;;;21.35;13.55;;;;;;;;;;4952752;29;20059;-66
2020/12/26 00:15:07;;;;;;;26.77;14.43;;;;;;;;;;4950608;29;20046;-67
2020/12/26 00:17:33;;;;;;;24.50;13.68;;;;;;;;;;4952408;29;20047;-66
2020/12/26 00:19:59;;;;;;;21.88;13.73;;;;;;;;;;4952750;29;20441;-66
2020/12/26 00:22:25;;;;;;;21.00;12.32;;;;;;;;;;4936963;29;20065;-66
2020/12/26 00:24:51;;;;;;;19.77;12.40;;;;;;;;;;4936437;29;20490;-67
2020/12/26 00:27:18;;;;;;;20.33;11.77;;;;;;;;;;4936085;29;20047;-66
2020/12/26 00:29:45;;;;;;;20.73;12.52;;;;;;;;;;4936850;29;20134;-66
2020/12/26 00:32:12;;;;;;;18.85;11.82;;;;;;;;;;4935973;29;20087;-67
2020/12/26 00:34:39;;;;;;;18.77;11.75;;;;;;;;;;4953164;29;20086;-65
2020/12/26 00:37:05;;;;;;;21.25;12.75;;;;;;;;;;4935116;29;20059;-66
2020/12/26 00:39:32;;;;;;;18.75;11.70;;;;;;;;;;4935458;29;20055;-66
2020/12/26 00:41:58;;;;;;;23.38;12.07;;;;;;;;;;4951531;29;20486;-67
2020/12/26 00:44:24;;;;;;;18.75;11.40;;;;;;;;;;4936267;29;20061;-67
2020/12/26 00:46:50;;;;;;;22.58;12.15;;;;;;;;;;4951657;29;20048;-67
2020/12/26 00:49:25;;;;;;;20.58;12.13;;;;;;;;;;4953708;29;20106;-66
2020/12/26 00:51:51;;;;;;;18.17;12.05;;;;;;;;;;4935750;29;20047;-66
2020/12/26 00:54:17;;;;;;;19.45;11.80;;;;;;;;;;4935812;29;20055;-66
2020/12/26 00:56:44;;;;;;;18.75;11.70;;;;;;;;;;4951429;29;20058;-66
2020/12/26 00:59:10;;;;;;;16.98;11.18;;;;;;;;;;4952355;29;20051;-65
2020/12/26 01:01:36;;;;;;;20.00;10.85;;;;;;;;;;4936387;29;20470;-65
2020/12/26 01:04:02;;;;;;;17.83;10.65;;;;;;;;;;4936452;29;20055;-65
2020/12/26 01:06:28;;;;;;;16.58;11.35;;;;;;;;;;4936008;29;20066;-65
2020/12/26 01:16:22;;;;;;;14.20;9.85;;;;;;;;;;4965730;23;20062;-65
2020/12/26 01:18:48;;;;;;;19.80;11.23;;;;;;;;;;4973011;28;20053;-65
2020/12/26 01:21:15;;;;;;;17.80;10.93;;;;;;;;;;4955593;28;20051;-65
2020/12/26 01:23:42;;;;;;;18.48;11.07;;;;;;;;;;4955616;28;20481;-66
2020/12/26 01:26:08;;;;;;;18.60;11.60;;;;;;;;;;4955184;28;20142;-65
2020/12/26 01:28:36;;;;;;;18.65;10.45;;;;;;;;;;4965539;28;20065;-65
2020/12/26 01:31:02;;;;;;;16.00;10.00;;;;;;;;;;4990995;28;20061;-65
2020/12/26 01:33:28;;;;;;;16.25;10.20;;;;;;;;;;4974967;28;20054;-64
2020/12/26 01:35:55;;;;;;;14.82;10.32;;;;;;;;;;4958613;28;20057;-64
2020/12/26 01:38:21;;;;;;;15.80;10.10;;;;;;;;;;4974718;28;20116;-64
2020/12/26 01:40:50;;;;;;;17.27;9.45;;;;;;;;;;4992211;28;20046;-64
2020/12/26 01:43:16;;;;;;;14.88;9.48;;;;;;;;;;4974983;28;20069;-64
2020/12/26 01:45:43;;;;;;;15.43;10.55;;;;;;;;;;4974347;28;20073;-64
2020/12/26 01:48:19;;;;;;;18.80;10.45;;;;;;;;;;4990944;28;20053;-64
2020/12/26 01:50:45;;;;;;;14.60;10.45;;;;;;;;;;4992233;28;20057;-64
2020/12/26 01:53:12;;;;;;;19.60;11.88;;;;;;;;;;4990931;28;20057;-64
2020/12/26 01:55:41;;;;;;;17.38;10.57;;;;;;;;;;4974191;28;20050;-64
2020/12/26 01:58:13;;;;;;;16.63;10.05;;;;;;;;;;4989047;28;20050;-66
2020/12/26 02:00:40;;;;;;;17.90;10.43;;;;;;;;;;4955450;28;20062;-64
2020/12/26 02:03:06;;;;;;;16.50;10.90;;;;;;;;;;4955386;28;20066;-67
2020/12/26 02:05:33;;;;;;;14.00;9.57;;;;;;;;;;4961146;28;20670;-64
2020/12/26 02:08:01;;;;;;;20.35;10.45;;;;;;;;;;4959090;28;20060;-64
2020/12/26 02:10:27;;;;;;;16.95;10.48;;;;;;;;;;4951792;29;20508;-64
2020/12/26 02:12:53;;;;;;;15.43;9.30;;;;;;;;;;4952129;29;20065;-64
2020/12/26 02:15:20;;;;;;;16.42;11.05;;;;;;;;;;4935251;29;20556;-64
2020/12/26 02:17:46;;;;;;;14.73;10.05;;;;;;;;;;4952169;29;20066;-64
2020/12/26 02:20:12;;;;;;;17.10;9.70;;;;;;;;;;4961573;28;20091;-64
2020/12/26 02:22:39;;;;;;;13.73;9.82;;;;;;;;;;4955474;28;20062;-63
2020/12/26 02:25:05;;;;;;;15.02;10.07;;;;;;;;;;4954828;28;20534;-64
2020/12/26 02:27:31;;;;;;;16.75;10.77;;;;;;;;;;4957815;28;20051;-64
2020/12/26 02:29:58;;;;;;;16.63;10.18;;;;;;;;;;4958730;28;20498;-65
2020/12/26 02:32:24;;;;;;;14.60;9.68;;;;;;;;;;4958386;28;20046;-64
2020/12/26 02:34:50;;;;;;;17.48;10.15;;;;;;;;;;4958876;28;20051;-64
2020/12/26 02:37:16;;;;;;;17.67;10.50;;;;;;;;;;4942051;28;20073;-64
2020/12/26 02:39:42;;;;;;;21.00;12.23;;;;;;;;;;4958855;28;20057;-64
2020/12/26 02:42:08;;;;;;;19.27;11.45;;;;;;;;;;4958426;28;20497;-64
2020/12/26 02:44:36;;;;;;;16.77;10.48;;;;;;;;;;4958515;28;20057;-65
2020/12/26 02:47:02;;;;;;;15.85;10.40;;;;;;;;;;4957394;28;20433;-64
2020/12/26 02:49:28;;;;;;;14.88;10.32;;;;;;;;;;4958570;28;20051;-63
2020/12/26 02:51:54;;;;;;;16.20;10.38;;;;;;;;;;4926593;28;20130;-63
2020/12/26 02:54:20;;;;;;;19.30;10.57;;;;;;;;;;4958246;28;20046;-62
2020/12/26 02:56:46;;;;;;;16.00;9.90;;;;;;;;;;4954199;29;20504;-63
2020/12/26 02:59:12;;;;;;;18.48;10.45;;;;;;;;;;4956289;28;20047;-62
2020/12/26 03:01:40;;;;;;;16.77;10.40;;;;;;;;;;4958468;28;20050;-63
2020/12/26 03:04:06;;;;;;;16.98;10.23;;;;;;;;;;4957546;28;20417;-63
2020/12/26 03:06:32;;;;;;;20.05;10.77;;;;;;;;;;4957757;28;20065;-63
2020/12/26 03:08:59;;;;;;;15.30;9.43;;;;;;;;;;4954580;29;20498;-63
2020/12/26 03:11:25;;;;;;;16.42;9.95;;;;;;;;;;4954823;29;20051;-64
2020/12/26 03:13:51;;;;;;;14.93;9.40;;;;;;;;;;4939289;28;20051;-63
2020/12/26 03:16:18;;;;;;;15.90;9.75;;;;;;;;;;4957135;28;20054;-64
2020/12/26 03:18:44;;;;;;;15.60;10.05;;;;;;;;;;4957525;28;20055;-63
2020/12/26 03:21:14;;;;;;;17.55;9.85;;;;;;;;;;4958233;28;20165;-64
2020/12/26 03:23:40;;;;;;;16.90;10.35;;;;;;;;;;4958178;28;20069;-64
2020/12/26 03:26:07;;;;;;;15.40;10.40;;;;;;;;;;4957056;28;20055;-64
2020/12/26 03:28:33;;;;;;;15.52;10.15;;;;;;;;;;4957812;28;20046;-64
2020/12/26 03:30:59;;;;;;;15.25;9.50;;;;;;;;;;4972810;28;20043;-64
2020/12/26 03:33:26;;;;;;;16.23;9.40;;;;;;;;;;4957567;28;20059;-63
2020/12/26 03:35:52;;;;;;;17.70;10.48;;;;;;;;;;4957518;28;20051;-64
2020/12/26 03:38:18;;;;;;;21.23;11.85;;;;;;;;;;4956396;28;20066;-64
2020/12/26 03:40:44;;;;;;;19.25;11.00;;;;;;;;;;4941898;28;20121;-62
2020/12/26 03:43:10;;;;;;;17.90;10.52;;;;;;;;;;4953815;29;20055;-64
2020/12/26 03:45:36;;;;;;;17.90;10.45;;;;;;;;;;4937593;29;20047;-66
2020/12/26 03:48:03;;;;;;;18.10;10.55;;;;;;;;;;4954014;29;20051;-66
2020/12/26 03:50:29;;;;;;;17.13;10.35;;;;;;;;;;4954126;29;20062;-66
2020/12/26 03:52:58;;;;;;;17.23;9.90;;;;;;;;;;4939735;28;20047;-68
2020/12/26 03:55:24;;;;;;;17.30;9.57;;;;;;;;;;4953038;29;20059;-66
2020/12/26 03:57:50;;;;;;;17.38;10.48;;;;;;;;;;4953850;29;20410;-65
2020/12/26 04:00:16;;;;;;;20.42;10.60;;;;;;;;;;4937839;29;20055;-65
2020/12/26 04:02:42;;;;;;;15.40;10.52;;;;;;;;;;4937843;29;20062;-64
2020/12/26 04:05:08;;;;;;;16.08;10.13;;;;;;;;;;4940672;28;20058;-65
2020/12/26 04:07:35;;;;;;;17.63;10.57;;;;;;;;;;4957071;28;20303;-65
2020/12/26 04:10:02;;;;;;;18.65;9.30;;;;;;;;;;4956987;28;20055;-66
2020/12/26 04:12:29;;;;;;;14.20;9.98;;;;;;;;;;4956670;28;20451;-65
2020/12/26 04:14:55;;;;;;;17.70;10.25;;;;;;;;;;4956840;28;20560;-65
2020/12/26 04:17:22;;;;;;;17.15;9.38;;;;;;;;;;4963055;23;20054;-65
2020/12/26 04:19:49;;;;;;;13.48;9.02;;;;;;;;;;4972844;28;20061;-65
2020/12/26 04:22:16;;;;;;;16.27;9.98;;;;;;;;;;4972629;28;20057;-65
2020/12/26 04:24:43;;;;;;;15.65;9.88;;;;;;;;;;4970998;28;20074;-66
2020/12/26 04:27:10;;;;;;;15.88;10.50;;;;;;;;;;4958114;28;20061;-65
2020/12/26 04:29:36;;;;;;;17.77;10.90;;;;;;;;;;4956907;28;20501;-65
2020/12/26 04:32:02;;;;;;;17.55;10.85;;;;;;;;;;4956718;28;20059;-65
2020/12/26 04:34:29;;;;;;;14.32;9.93;;;;;;;;;;4956522;28;20049;-66
2020/12/26 04:36:55;;;;;;;19.30;11.13;;;;;;;;;;4955870;28;20047;-66
2020/12/26 04:39:21;;;;;;;20.10;10.82;;;;;;;;;;4956268;28;20061;-65
2020/12/26 04:41:48;;;;;;;18.38;11.13;;;;;;;;;;4956531;28;20058;-65
2020/12/26 04:44:14;;;;;;;17.42;9.95;;;;;;;;;;4940464;28;20050;-65
2020/12/26 04:46:40;;;;;;;17.73;11.07;;;;;;;;;;4925721;28;20050;-65
2020/12/26 04:49:08;;;;;;;16.33;9.70;;;;;;;;;;4932779;28;20051;-67
2020/12/26 04:51:39;;;;;;;15.88;9.32;;;;;;;;;;4975794;28;20046;-67
2020/12/26 04:54:09;;;;;;;16.65;9.88;;;;;;;;;;4972309;28;20054;-66
2020/12/26 04:56:41;;;;;;;16.55;10.00;;;;;;;;;;4971840;28;20075;-67
2020/12/26 04:59:10;;;;;;;14.52;9.60;;;;;;;;;;4987604;28;20058;-66
2020/12/26 05:01:40;;;;;;;15.15;10.27;;;;;;;;;;4968321;28;20137;-68
2020/12/26 05:04:07;;;;;;;15.23;9.13;;;;;;;;;;4956074;28;20073;-67
2020/12/26 05:06:45;;;;;;;13.20;8.57;;;;;;;;;;4955659;28;20051;-66
2020/12/26 05:09:12;;;;;;;14.32;9.15;;;;;;;;;;4955960;28;20445;-66
2020/12/26 05:11:38;;;;;;;15.07;10.27;;;;;;;;;;4955931;28;20080;-66
2020/12/26 05:14:08;;;;;;;13.38;9.35;;;;;;;;;;4963681;28;20490;-67
2020/12/26 05:16:34;;;;;;;16.23;9.63;;;;;;;;;;4971262;28;20065;-67
2020/12/26 05:19:01;;;;;;;13.23;9.05;;;;;;;;;;4971731;28;20058;-67
2020/12/26 05:21:27;;;;;;;14.73;9.80;;;;;;;;;;4972030;28;20055;-67
2020/12/26 05:24:07;;;;;;;20.08;10.20;;;;;;;;;;4971843;28;20047;-67
2020/12/26 05:26:38;;;;;;;13.93;9.45;;;;;;;;;;4958141;28;20051;-66
2020/12/26 05:29:05;;;;;;;14.75;9.50;;;;;;;;;;4955761;28;20051;-66
2020/12/26 05:31:45;;;;;;;13.07;9.23;;;;;;;;;;4955789;28;20576;-69
2020/12/26 05:34:12;;;;;;;17.42;11.00;;;;;;;;;;4955726;28;20497;-69
2020/12/26 05:36:39;;;;;;;15.02;11.02;;;;;;;;;;4955350;28;20046;-68
2020/12/26 05:39:06;;;;;;;16.58;10.73;;;;;;;;;;4972105;28;20055;-68
2020/12/26 05:41:32;;;;;;;16.23;9.73;;;;;;;;;;4971942;28;20061;-68
2020/12/26 05:43:58;;;;;;;19.15;11.88;;;;;;;;;;4972098;28;20058;-67
2020/12/26 05:46:24;;;;;;;16.92;11.52;;;;;;;;;;4970911;28;20058;-67
2020/12/26 05:48:51;;;;;;;18.40;10.60;;;;;;;;;;4954373;28;20134;-68
2020/12/26 05:51:24;;;;;;;16.70;10.93;;;;;;;;;;4939513;28;20055;-66
2020/12/26 05:54:00;;;;;;;15.60;11.02;;;;;;;;;;4971500;28;20055;-67
2020/12/26 05:56:26;;;;;;;15.57;10.75;;;;;;;;;;4923400;28;20051;-67
2020/12/26 05:58:52;;;;;;;15.07;10.93;;;;;;;;;;4923968;28;20073;-67
2020/12/26 06:01:21;;;;;;;21.02;12.55;;;;;;;;;;4957904;28;20042;-67
2020/12/26 06:03:48;;;;;;;18.45;11.07;;;;;;;;;;4960160;28;20055;-66
2020/12/26 06:06:15;;;;;;;18.60;11.85;;;;;;;;;;4959182;28;20050;-66
2020/12/26 06:08:41;;;;;;;19.38;10.55;;;;;;;;;;4943540;28;20066;-65
2020/12/26 06:11:11;;;;;;;18.02;10.98;;;;;;;;;;4959556;28;20050;-67
2020/12/26 06:13:38;;;;;;;17.13;11.75;;;;;;;;;;4955047;28;20083;-66
2020/12/26 06:16:10;;;;;;;19.23;11.82;;;;;;;;;;4974302;28;20047;-67
2020/12/26 06:18:41;;;;;;;20.58;12.80;;;;;;;;;;4975188;28;20063;-66
2020/12/26 06:21:08;;;;;;;15.52;10.77;;;;;;;;;;4974873;28;20138;-65
2020/12/26 06:23:38;;;;;;;18.50;11.98;;;;;;;;;;4974827;28;20050;-67
2020/12/26 06:26:05;;;;;;;18.20;12.23;;;;;;;;;;4954761;29;20059;-66
2020/12/26 06:28:33;;;;;;;20.55;11.88;;;;;;;;;;4955720;29;20047;-64
2020/12/26 06:31:00;;;;;;;20.00;12.57;;;;;;;;;;4957352;28;20062;-64
2020/12/26 06:33:30;;;;;;;19.85;11.45;;;;;;;;;;4958879;28;20039;-63
2020/12/26 06:35:59;;;;;;;20.83;11.38;;;;;;;;;;4957817;28;20070;-64
2020/12/26 06:38:28;;;;;;;19.90;12.63;;;;;;;;;;4957860;28;20060;-64
2020/12/26 06:40:56;;;;;;;22.20;12.25;;;;;;;;;;4957457;28;20046;-64
2020/12/26 06:43:47;;;;;;;24.58;13.35;;;;;;;;;;4958637;28;20402;-65
2020/12/26 06:46:13;;;;;;;25.77;15.20;;;;;;;;;;4957984;28;20481;-63
2020/12/26 06:48:45;;;;;;;23.52;13.27;;;;;;;;;;4958510;28;20054;-67
2020/12/26 06:51:28;;;;;;;23.73;11.82;;;;;;;;;;4958571;28;20047;-67
2020/12/26 06:53:56;;;;;;;28.73;14.57;;;;;;;;;;4958509;28;20077;-66
2020/12/26 06:56:34;;;;;;;25.88;14.50;;;;;;;;;;4957724;28;20397;-64
2020/12/26 06:59:03;;;;;;;26.42;13.70;;;;;;;;;;4958299;28;20058;-64
2020/12/26 07:01:31;;;;;;;26.52;13.77;;;;;;;;;;4957426;28;20367;-64
2020/12/26 07:04:17;;;;;;;27.02;14.77;;;;;;;;;;4974278;28;20057;-64
2020/12/26 07:06:47;;;;;;;25.02;14.43;;;;;;;;;;4957581;28;20397;-64
2020/12/26 07:09:16;;;;;;;24.17;14.27;;;;;;;;;;4957542;28;20057;-65
2020/12/26 07:11:50;;;;;;;23.98;13.73;;;;;;;;;;4958061;28;20066;-65
2020/12/26 07:14:29;;;;;;;28.15;15.35;;;;;;;;;;4957703;28;20046;-65
2020/12/26 07:16:57;;;;;;;26.25;14.98;;;;;;;;;;4956872;28;20057;-65
2020/12/26 07:19:27;;;;;;;26.17;14.30;;;;;;;;;;4954649;28;20490;-64
2020/12/26 07:22:00;;;;;;;25.27;14.90;;;;;;;;;;4954649;29;20054;-64
2020/12/26 07:24:35;;;;;;;22.83;14.07;;;;;;;;;;4954783;28;20066;-64
2020/12/26 07:27:27;;;;;;;24.50;13.27;;;;;;;;;;4973617;28;20042;-66
2020/12/26 07:30:04;;;;;;;24.42;14.45;;;;;;;;;;4938518;29;20051;-69
2020/12/26 07:32:37;;;;;;;25.13;13.43;;;;;;;;;;4938153;29;20062;-68
2020/12/26 07:38:13;;;;;;;24.15;13.00;;;;;;;;;;4951950;29;20502;-69
2020/12/26 07:40:44;;;;;;;25.85;14.65;;;;;;;;;;4955443;29;20525;-69
2020/12/26 07:43:13;;;;;;;29.67;14.75;;;;;;;;;;4955377;29;20078;-68
2020/12/26 07:45:42;;;;;;;24.83;13.73;;;;;;;;;;4954869;29;20133;-67
2020/12/26 07:48:08;;;;;;;26.58;13.70;;;;;;;;;;4955087;29;20051;-68
2020/12/26 07:50:37;;;;;;;28.83;14.85;;;;;;;;;;4954942;29;20043;-68
2020/12/26 07:53:06;;;;;;;24.00;13.00;;;;;;;;;;4954732;29;20102;-67
2020/12/26 07:55:35;;;;;;;24.65;13.30;;;;;;;;;;4954387;29;20102;-72
2020/12/26 07:58:06;;;;;;;24.35;13.50;;;;;;;;;;4954896;29;20075;-69
2020/12/26 08:00:34;;;;;;;20.38;13.07;;;;;;;;;;4954983;29;20110;-72
2020/12/26 08:03:02;;;;;;;22.55;12.90;;;;;;;;;;4955371;29;20071;-71
2020/12/26 08:05:32;;;;;;;25.60;13.55;;;;;;;;;;4954395;29;20054;-71
2020/12/26 08:07:59;;;;;;;25.20;12.90;;;;;;;;;;4954812;29;20047;-68
2020/12/26 08:10:26;;;;;;;26.05;14.40;;;;;;;;;;4954646;29;20075;-66
2020/12/26 08:12:56;;;;;;;24.25;14.48;;;;;;;;;;4955075;29;20047;-65
2020/12/26 08:15:32;;;;;;;25.23;13.80;;;;;;;;;;4950527;29;20039;-65
2020/12/26 08:17:59;;;;;;;25.65;13.75;;;;;;;;;;4952357;29;20055;-67
2020/12/26 08:20:32;;;;;;;32.35;15.73;;;;;;;;;;4952287;29;20490;-67
2020/12/26 08:22:58;;;;;;;26.45;14.75;;;;;;;;;;4952632;29;20134;-66
2020/12/26 08:25:26;;;;;;;28.38;14.23;;;;;;;;;;4951432;28;20123;-66
2020/12/26 08:27:52;;;;;;;32.30;16.02;;;;;;;;;;4952012;29;20497;-66
2020/12/26 08:30:26;;;;;;;32.75;17.23;;;;;;;;;;4952672;29;20055;-65
2020/12/26 08:33:05;;;;;;;31.75;16.23;;;;;;;;;;4935712;29;20450;-66
2020/12/26 08:35:31;;;;;;;30.15;14.90;;;;;;;;;;4920407;29;20106;-65
2020/12/26 08:38:07;;;;;;;29.92;16.20;;;;;;;;;;4935614;29;20055;-65
2020/12/26 08:40:35;;;;;;;26.15;14.10;;;;;;;;;;4935147;29;20058;-65
2020/12/26 08:43:11;;;;;;;25.05;15.02;;;;;;;;;;4935272;29;20533;-65
2020/12/26 08:45:37;;;;;;;37.13;15.32;;;;;;;;;;4936086;29;20079;-65
2020/12/26 08:48:18;;;;;;;23.08;12.85;;;;;;;;;;4952316;29;20577;-65
2020/12/26 08:50:53;;;;;;;22.23;13.15;;;;;;;;;;4951820;29;20085;-65
2020/12/26 08:53:20;;;;;;;18.58;11.35;;;;;;;;;;4951689;29;20082;-66
2020/12/26 08:55:48;;;;;;;18.83;11.68;;;;;;;;;;4951396;29;20079;-68
2020/12/26 08:58:23;;;;;;;24.92;12.63;;;;;;;;;;4951894;29;20474;-65
2020/12/26 09:00:50;;;;;;;22.25;12.40;;;;;;;;;;4952085;29;20047;-67
2020/12/26 09:03:20;;;;;;;18.77;10.68;;;;;;;;;;4951525;29;20063;-68
2020/12/26 09:05:46;;;;;;;17.05;9.65;;;;;;;;;;4950899;29;20043;-67
2020/12/26 09:08:13;;;;;;;17.20;10.20;;;;;;;;;;4951867;29;20267;-67
2020/12/26 09:10:40;;;;;;;17.48;10.38;;;;;;;;;;4952205;29;20086;-72
2020/12/26 09:13:08;;;;;;;15.75;9.30;;;;;;;;;;4951818;29;20362;-72
2020/12/26 09:15:51;;;;;;;17.67;10.15;;;;;;;;;;4951686;29;20040;-72
2020/12/26 09:18:22;;;;;;;15.77;9.73;;;;;;;;;;4951430;29;20055;-68
2020/12/26 09:20:49;;;;;;;15.00;9.98;;;;;;;;;;4951508;29;20502;-69
2020/12/26 09:23:15;;;;;;;18.45;9.77;;;;;;;;;;4951444;29;20055;-68
2020/12/26 09:25:41;;;;;;;17.90;9.57;;;;;;;;;;4951097;29;20454;-65
2020/12/26 09:28:07;;;;;;;19.17;10.82;;;;;;;;;;4951560;29;20102;-66
2020/12/26 09:30:33;;;;;;;18.50;9.70;;;;;;;;;;4951943;29;20071;-68
2020/12/26 09:32:59;;;;;;;22.25;11.07;;;;;;;;;;4950886;29;20054;-66
2020/12/26 09:35:25;;;;;;;18.15;10.75;;;;;;;;;;4950318;29;20098;-68
2020/12/26 09:37:55;;;;;;;17.02;10.52;;;;;;;;;;4951148;29;20055;-69
2020/12/26 09:40:28;;;;;;;19.23;9.70;;;;;;;;;;4951457;29;20047;-66
2020/12/26 09:42:55;;;;;;;17.85;9.82;;;;;;;;;;4951434;29;20074;-67
2020/12/26 09:45:21;;;;;;;16.42;9.45;;;;;;;;;;4931888;29;20054;-67
2020/12/26 09:47:47;;;;;;;15.27;9.52;;;;;;;;;;4951692;29;20043;-65
2020/12/26 09:53:37;;;;;;;17.25;9.30;;;;;;;;;;4951590;29;20481;-63
2020/12/26 09:56:07;;;;;;;15.20;9.82;;;;;;;;;;4949718;29;20062;-63
2020/12/26 09:58:33;;;;;;;14.80;9.38;;;;;;;;;;4949476;29;20532;-64
2020/12/26 10:01:00;;;;;;;15.70;9.35;;;;;;;;;;4950273;29;20062;-65
2020/12/26 10:03:26;;;;;;;14.85;8.70;;;;;;;;;;4950184;29;20568;-66
2020/12/26 10:05:53;;;;;;;17.05;9.10;;;;;;;;;;4949691;29;20055;-66
2020/12/26 10:08:19;;;;;;;15.82;9.27;;;;;;;;;;4950067;29;20059;-72
2020/12/26 10:10:45;;;;;;;12.00;8.30;;;;;;;;;;4950283;29;20406;-68
2020/12/26 10:13:11;;;;;;;14.90;9.68;;;;;;;;;;4932908;29;20129;-64
2020/12/26 10:15:38;;;;;;;14.52;8.68;;;;;;;;;;4949015;29;20426;-67
2020/12/26 10:18:04;;;;;;;15.10;9.38;;;;;;;;;;4968863;23;20057;-71
2020/12/26 10:20:31;;;;;;;14.40;9.38;;;;;;;;;;4946931;29;20067;-71
2020/12/26 10:22:57;;;;;;;14.95;7.88;;;;;;;;;;4950111;29;20163;-71
2020/12/26 10:25:27;;;;;;;12.32;7.93;;;;;;;;;;4940120;29;20055;-71
2020/12/26 10:27:53;;;;;;;15.45;8.43;;;;;;;;;;4942401;28;20052;-71
2020/12/26 10:30:19;;;;;;;14.60;7.78;;;;;;;;;;4936089;29;20083;-71
2020/12/26 10:32:46;;;;;;;13.93;7.93;;;;;;;;;;4936574;29;20044;-75
2020/12/26 10:35:12;;;;;;;14.88;8.07;;;;;;;;;;4933819;29;20730;-72
2020/12/26 10:37:38;;;;;;;11.30;7.00;;;;;;;;;;4927571;29;20078;-72
2020/12/26 10:40:07;;;;;;;13.63;8.30;;;;;;;;;;4932085;29;20136;-72
2020/12/26 10:42:33;;;;;;;11.40;6.85;;;;;;;;;;4938522;29;20069;-73
2020/12/26 10:45:00;;;;;;;10.55;7.00;;;;;;;;;;4940710;29;20102;-73
2020/12/26 10:47:27;;;;;;;13.52;7.78;;;;;;;;;;4922412;29;20474;-72
2020/12/26 10:49:53;;;;;;;13.75;8.10;;;;;;;;;;4944155;29;20071;-74
2020/12/26 10:52:19;;;;;;;10.63;7.18;;;;;;;;;;4939693;28;20048;-72
2020/12/26 10:54:45;;;;;;;11.52;7.20;;;;;;;;;;4938068;29;20106;-73
2020/12/26 10:57:11;;;;;;;13.18;8.40;;;;;;;;;;4941215;29;20071;-72
2020/12/26 10:59:37;;;;;;;9.27;6.88;;;;;;;;;;4943787;29;20060;-72
2020/12/26 11:02:04;;;;;;;11.93;7.45;;;;;;;;;;4945213;28;20075;-72
2020/12/26 11:04:35;;;;;;;10.80;7.10;;;;;;;;;;4943106;29;20051;-74
2020/12/26 11:07:01;;;;;;;14.70;7.45;;;;;;;;;;4922863;29;20189;-73
2020/12/26 11:09:33;;;;;;;13.73;8.03;;;;;;;;;;4947287;29;20297;-74
2020/12/26 11:11:59;;;;;;;13.77;7.53;;;;;;;;;;4943365;29;20051;-76
2020/12/26 11:14:25;;;;;;;12.02;8.73;;;;;;;;;;4941164;29;20055;-74
2020/12/26 11:16:53;;;;;;;14.32;8.70;;;;;;;;;;4939102;29;20047;-72
2020/12/26 11:19:21;;;;;;;12.13;7.22;;;;;;;;;;4935220;29;20072;-74
2020/12/26 11:21:51;;;;;;;15.57;7.57;;;;;;;;;;4936000;29;20047;-74
2020/12/26 11:24:17;;;;;;;10.73;7.18;;;;;;;;;;4939966;29;20106;-71
2020/12/26 11:26:43;;;;;;;11.60;6.88;;;;;;;;;;4939163;29;20055;-74
2020/12/26 11:29:10;;;;;;;12.55;7.15;;;;;;;;;;4935620;29;20118;-73
2020/12/26 11:31:36;;;;;;;11.20;6.63;;;;;;;;;;4938718;29;20047;-75
2020/12/26 11:34:02;;;;;;;11.20;6.35;;;;;;;;;;4938341;29;20138;-71
2020/12/26 11:36:29;;;;;;;13.68;7.93;;;;;;;;;;4940234;29;20530;-70
2020/12/26 11:38:56;;;;;;;12.15;7.20;;;;;;;;;;4944734;29;20043;-69
2020/12/26 11:41:27;;;;;;;11.15;7.00;;;;;;;;;;4943965;29;20055;-70
2020/12/26 11:43:55;;;;;;;10.20;7.07;;;;;;;;;;4941569;29;20180;-69
2020/12/26 11:46:23;;;;;;;8.90;6.47;;;;;;;;;;4945395;29;20154;-70
2020/12/26 11:48:50;;;;;;;11.48;6.57;;;;;;;;;;4945850;29;20050;-70
2020/12/26 11:51:17;;;;;;;9.70;6.15;;;;;;;;;;4942061;29;20518;-73
2020/12/26 11:53:43;;;;;;;11.45;5.85;;;;;;;;;;4941828;29;20057;-70
2020/12/26 11:56:11;;;;;;;8.90;6.18;;;;;;;;;;4942737;29;20052;-69
2020/12/26 11:58:37;;;;;;;7.07;4.82;;;;;;;;;;4942164;29;20734;-70
2020/12/26 12:01:04;;;;;;;8.65;5.88;;;;;;;;;;4945434;29;20126;-69
2020/12/26 12:03:31;;;;;;;15.27;6.32;;;;;;;;;;4945420;29;20585;-69
2020/12/26 12:05:57;;;;;;;7.65;5.05;;;;;;;;;;4941017;29;20079;-70
2020/12/26 12:08:23;;;;;;;7.45;5.38;;;;;;;;;;4942229;29;20747;-70
2020/12/26 12:10:49;;;;;;;13.18;5.95;;;;;;;;;;4940196;28;20503;-70
2020/12/26 12:13:15;;;;;;;8.40;5.30;;;;;;;;;;4938957;29;20055;-69
2020/12/26 12:15:41;;;;;;;7.45;4.72;;;;;;;;;;4937425;29;20463;-69
2020/12/26 12:18:08;;;;;;;10.77;5.13;;;;;;;;;;4933022;29;20056;-69
2020/12/26 12:20:34;;;;;;;8.32;5.88;;;;;;;;;;4930468;29;20047;-70
2020/12/26 12:23:01;;;;;;;8.23;4.93;;;;;;;;;;4932422;29;20505;-73
2020/12/26 12:25:27;;;;;;;7.47;4.70;;;;;;;;;;4931693;29;20118;-71
2020/12/26 12:27:54;;;;;;;5.60;4.43;;;;;;;;;;4932356;29;20134;-71
2020/12/26 12:30:22;;;;;;;7.38;4.60;;;;;;;;;;4931947;29;20107;-71
2020/12/26 12:32:48;;;;;;;7.43;4.95;;;;;;;;;;4929667;29;20784;-71
2020/12/26 12:35:15;;;;;;;6.57;4.15;;;;;;;;;;4912380;29;20495;-71
2020/12/26 12:37:45;;;;;;;8.50;4.07;;;;;;;;;;4914231;29;20056;-72
2020/12/26 12:40:11;;;;;;;9.75;4.95;;;;;;;;;;4912986;29;20052;-73
2020/12/26 12:42:37;;;;;;;6.78;5.47;;;;;;;;;;4926192;29;20056;-73
2020/12/26 12:45:03;;;;;;;9.48;4.78;;;;;;;;;;4932910;29;20055;-73
2020/12/26 12:47:29;;;;;;;6.28;4.28;;;;;;;;;;4931416;29;20055;-73
2020/12/26 12:49:55;;;;;;;5.15;4.03;;;;;;;;;;4933123;29;20048;-74
2020/12/26 12:52:22;;;;;;;7.80;4.00;;;;;;;;;;4933040;29;20055;-73
2020/12/26 12:54:48;;;;;;;5.65;3.92;;;;;;;;;;4932984;29;20083;-73
2020/12/26 12:57:24;;;;;;;7.00;4.55;;;;;;;;;;4931922;29;20079;-73
2020/12/26 12:59:50;;;;;;;10.40;4.53;;;;;;;;;;4933048;29;20106;-74
2020/12/26 13:02:16;;;;;;;6.80;4.55;;;;;;;;;;4932276;29;20085;-72
2020/12/26 13:04:42;;;;;;;7.68;4.25;;;;;;;;;;4931383;29;20531;-73
2020/12/26 13:07:09;;;;;;;7.28;4.70;;;;;;;;;;4932411;29;20051;-73
2020/12/26 13:09:35;;;;;;;8.25;4.43;;;;;;;;;;4932613;29;20071;-74
2020/12/26 13:12:01;;;;;;;7.45;5.00;;;;;;;;;;4931422;29;20472;-73
2020/12/26 13:14:27;;;;;;;8.65;5.13;;;;;;;;;;4931291;29;20055;-73
2020/12/26 13:16:54;;;;;;;8.80;4.90;;;;;;;;;;4932415;29;20052;-73
2020/12/26 13:19:20;;;;;;;7.25;4.78;;;;;;;;;;4931893;29;20603;-72
2020/12/26 13:21:46;;;;;;;7.20;4.53;;;;;;;;;;4932361;29;20063;-72
2020/12/26 13:24:12;;;;;;;6.35;4.80;;;;;;;;;;4932026;29;20055;-72
2020/12/26 13:26:38;;;;;;;11.98;4.97;;;;;;;;;;4931788;29;20122;-75
2020/12/26 13:29:04;;;;;;;8.80;5.40;;;;;;;;;;4930559;29;20507;-71
2020/12/26 13:31:34;;;;;;;9.40;4.57;;;;;;;;;;4934603;29;20091;-74
2020/12/26 13:34:04;;;;;;;7.35;4.68;;;;;;;;;;4931737;29;20106;-74
2020/12/26 13:36:30;;;;;;;11.10;4.43;;;;;;;;;;4916865;29;20055;-74
2020/12/26 13:38:56;;;;;;;11.13;5.47;;;;;;;;;;4916944;29;20095;-74
2020/12/26 13:41:25;;;;;;;8.52;5.18;;;;;;;;;;4932880;29;20060;-74
2020/12/26 13:43:52;;;;;;;7.05;5.05;;;;;;;;;;4934151;29;20062;-74
2020/12/26 13:46:19;;;;;;;10.55;6.65;;;;;;;;;;4932964;29;20083;-74
2020/12/26 13:48:46;;;;;;;12.73;6.65;;;;;;;;;;4933165;29;20055;-74
2020/12/26 13:51:12;;;;;;;9.07;5.75;;;;;;;;;;4932987;29;20395;-74
2020/12/26 13:53:39;;;;;;;10.82;6.72;;;;;;;;;;4933146;29;20055;-74
2020/12/26 13:56:05;;;;;;;9.52;5.70;;;;;;;;;;4933632;29;20059;-74
2020/12/26 13:58:34;;;;;;;6.75;5.07;;;;;;;;;;4933746;29;20529;-74
2020/12/26 14:01:00;;;;;;;7.35;5.80;;;;;;;;;;4932947;29;20079;-74
2020/12/26 14:03:26;;;;;;;10.27;6.53;;;;;;;;;;4917054;29;20059;-74
2020/12/26 14:05:53;;;;;;;8.95;5.97;;;;;;;;;;4933974;29;20090;-74
2020/12/26 14:08:19;;;;;;;13.00;6.20;;;;;;;;;;4934258;29;20052;-74
2020/12/26 14:10:45;;;;;;;11.15;6.93;;;;;;;;;;4934372;29;20051;-74
2020/12/26 14:13:11;;;;;;;10.18;6.03;;;;;;;;;;4933742;29;20084;-74
2020/12/26 14:15:37;;;;;;;11.60;7.25;;;;;;;;;;4933395;29;20056;-74
2020/12/26 14:18:03;;;;;;;9.82;6.57;;;;;;;;;;4932936;29;20095;-74
2020/12/26 14:20:29;;;;;;;12.57;6.57;;;;;;;;;;4933848;29;20091;-74
2020/12/26 14:22:55;;;;;;;8.43;6.40;;;;;;;;;;4935329;29;20475;-74
2020/12/26 14:25:21;;;;;;;9.07;6.28;;;;;;;;;;4937074;29;20070;-74
2020/12/26 14:27:48;;;;;;;6.85;5.35;;;;;;;;;;4937529;29;20059;-74
2020/12/26 14:30:14;;;;;;;12.45;6.32;;;;;;;;;;4936212;29;20302;-74
2020/12/26 14:32:40;;;;;;;9.85;6.20;;;;;;;;;;4936466;29;20558;-74
2020/12/26 14:35:06;;;;;;;9.68;6.13;;;;;;;;;;4951562;29;20427;-74
2020/12/26 14:37:32;;;;;;;10.82;6.65;;;;;;;;;;4935794;29;20138;-74
2020/12/26 14:39:58;;;;;;;10.57;5.88;;;;;;;;;;4936507;29;20542;-75
2020/12/26 14:42:25;;;;;;;9.35;5.93;;;;;;;;;;4936295;29;20051;-74